Time,TemperatureF,DewpointF,PressureIn,WindDirection,WindDirectionDegrees,WindSpeedMPH,WindSpeedGustMPH,Humidity,HourlyPrecipIn,Conditions,Clouds,dailyrainin,SoftwareType,DateUTC
2013-01-18 00:03:00,14.4,8.5,30.35,North,0,0.0,2.5,77,0.00,,,0.00,WUHU216HW,2013-01-18 06:03:00,
2013-01-18 00:08:00,14.4,8.2,30.34,NE,45,0.0,1.1,76,0.00,,,0.00,WUHU216HW,2013-01-18 06:08:00,
2013-01-18 00:13:00,14.4,8.2,30.34,North,0,0.4,1.6,76,0.00,,,0.00,WUHU216HW,2013-01-18 06:13:00,
2013-01-18 00:18:00,14.2,8.0,30.34,North,0,1.1,1.8,76,0.00,,,0.00,WUHU216HW,2013-01-18 06:18:00,
2013-01-18 00:23:00,14.2,8.0,30.34,North,0,1.8,2.9,76,0.00,,,0.00,WUHU216HW,2013-01-18 06:23:00,
2013-01-18 00:28:00,14.2,8.0,30.34,North,0,2.5,2.9,76,0.00,,,0.00,WUHU216HW,2013-01-18 06:28:00,
2013-01-18 00:33:00,14.2,8.0,30.33,North,0,0.4,2.7,76,0.00,,,0.00,WUHU216HW,2013-01-18 06:33:00,
2013-01-18 00:38:00,14.2,8.0,30.34,North,0,0.4,2.5,76,0.00,,,0.00,WUHU216HW,2013-01-18 06:38:00,
2013-01-18 00:43:00,14.0,7.8,30.34,North,0,0.2,1.3,76,0.00,,,0.00,WUHU216HW,2013-01-18 06:43:00,
2013-01-18 00:48:00,14.0,7.8,30.34,North,0,0.0,1.3,76,0.00,,,0.00,WUHU216HW,2013-01-18 06:48:00,
2013-01-18 00:53:00,14.2,8.0,30.33,North,0,0.4,1.3,76,0.00,,,0.00,WUHU216HW,2013-01-18 06:53:00,
2013-01-18 00:58:00,14.4,8.2,30.33,North,0,0.2,0.9,76,0.00,,,0.00,WUHU216HW,2013-01-18 06:58:00,
2013-01-18 01:03:00,14.4,8.2,30.33,North,0,0.0,0.9,76,0.00,,,0.00,WUHU216HW,2013-01-18 07:03:00,
2013-01-18 01:09:00,14.6,8.4,30.33,North,0,0.0,0.7,76,0.00,,,0.00,WUHU216HW,2013-01-18 07:09:00,
2013-01-18 01:14:00,14.4,8.2,30.33,North,0,0.0,0.0,76,0.00,,,0.00,WUHU216HW,2013-01-18 07:14:00,
2013-01-18 01:19:00,14.6,8.4,30.34,North,0,0.0,0.0,76,0.00,,,0.00,WUHU216HW,2013-01-18 07:19:00,
2013-01-18 01:24:00,14.6,8.4,30.33,SE,135,0.0,0.0,76,0.00,,,0.00,WUHU216HW,2013-01-18 07:24:00,
2013-01-18 01:29:00,14.8,8.6,30.33,SSE,158,0.0,0.0,76,0.00,,,0.00,WUHU216HW,2013-01-18 07:29:00,
2013-01-18 01:34:00,14.8,8.6,30.34,SSE,158,0.0,0.0,76,0.00,,,0.00,WUHU216HW,2013-01-18 07:34:00,
2013-01-18 01:39:00,14.8,8.6,30.35,South,180,0.0,0.0,76,0.00,,,0.00,WUHU216HW,2013-01-18 07:39:00,
2013-01-18 01:44:00,14.8,8.6,30.35,South,180,0.0,0.0,76,0.00,,,0.00,WUHU216HW,2013-01-18 07:44:00,
2013-01-18 01:49:00,14.8,8.6,30.35,South,180,0.0,0.0,76,0.00,,,0.00,WUHU216HW,2013-01-18 07:49:00,
2013-01-18 01:54:00,14.9,8.7,30.35,South,180,0.0,0.0,76,0.00,,,0.00,WUHU216HW,2013-01-18 07:54:00,
2013-01-18 01:59:00,14.9,8.7,30.35,South,180,0.0,0.0,76,0.00,,,0.00,WUHU216HW,2013-01-18 07:59:00,
2013-01-18 02:04:00,15.1,8.9,30.36,South,180,0.0,0.0,76,0.00,,,0.00,WUHU216HW,2013-01-18 08:04:00,
2013-01-18 02:09:00,15.1,8.9,30.36,South,180,0.0,0.0,76,0.00,,,0.00,WUHU216HW,2013-01-18 08:09:00,
2013-01-18 02:14:00,15.3,9.1,30.36,SSW,203,0.2,1.1,76,0.00,,,0.00,WUHU216HW,2013-01-18 08:14:00,
2013-01-18 02:19:00,15.5,9.3,30.36,SSW,203,0.4,1.1,76,0.00,,,0.00,WUHU216HW,2013-01-18 08:19:00,
2013-01-18 02:24:00,15.5,9.3,30.35,SSW,203,0.0,1.1,76,0.00,,,0.00,WUHU216HW,2013-01-18 08:24:00,
2013-01-18 02:29:00,15.5,9.3,30.36,South,180,1.1,1.1,76,0.00,,,0.00,WUHU216HW,2013-01-18 08:29:00,
2013-01-18 02:34:00,15.7,9.4,30.35,South,180,0.2,1.1,76,0.00,,,0.00,WUHU216HW,2013-01-18 08:34:00,
2013-01-18 02:39:00,15.7,9.4,30.35,South,180,0.0,1.1,76,0.00,,,0.00,WUHU216HW,2013-01-18 08:39:00,
2013-01-18 02:44:00,15.8,9.5,30.35,South,180,0.0,0.9,76,0.00,,,0.00,WUHU216HW,2013-01-18 08:44:00,
2013-01-18 02:49:00,15.8,9.5,30.35,South,180,0.0,1.1,76,0.00,,,0.00,WUHU216HW,2013-01-18 08:49:00,
2013-01-18 02:54:00,15.8,9.5,30.35,SSE,158,0.2,1.8,76,0.00,,,0.00,WUHU216HW,2013-01-18 08:54:00,
2013-01-18 02:59:00,15.8,9.5,30.35,SSW,203,0.9,1.8,76,0.00,,,0.00,WUHU216HW,2013-01-18 08:59:00,
2013-01-18 03:04:00,16.0,9.7,30.35,SSE,158,1.1,1.6,76,0.00,,,0.00,WUHU216HW,2013-01-18 09:04:00,
2013-01-18 03:09:00,16.0,9.7,30.34,SE,135,0.4,2.0,76,0.00,,,0.00,WUHU216HW,2013-01-18 09:09:00,
2013-01-18 03:14:00,16.0,9.7,30.34,SSW,203,0.9,2.0,76,0.00,,,0.00,WUHU216HW,2013-01-18 09:14:00,
2013-01-18 03:19:00,16.0,9.7,30.33,SE,135,0.4,1.8,76,0.00,,,0.00,WUHU216HW,2013-01-18 09:19:00,
2013-01-18 03:24:00,16.2,9.9,30.33,South,180,0.2,1.1,76,0.00,,,0.00,WUHU216HW,2013-01-18 09:24:00,
2013-01-18 03:29:00,16.2,9.9,30.33,SSE,158,0.7,1.3,76,0.00,,,0.00,WUHU216HW,2013-01-18 09:29:00,
2013-01-18 03:34:00,16.2,9.9,30.32,SE,135,1.8,1.8,76,0.00,,,0.00,WUHU216HW,2013-01-18 09:34:00,
2013-01-18 03:39:00,16.2,9.9,30.32,SW,225,0.4,2.7,76,0.00,,,0.00,WUHU216HW,2013-01-18 09:39:00,
2013-01-18 03:44:00,16.2,9.9,30.31,South,180,1.3,2.7,76,0.00,,,0.00,WUHU216HW,2013-01-18 09:44:00,
2013-01-18 03:49:00,16.2,9.9,30.31,South,180,2.2,2.2,76,0.00,,,0.00,WUHU216HW,2013-01-18 09:49:00,
2013-01-18 03:54:00,16.2,9.9,30.31,SSE,158,0.4,2.5,76,0.00,,,0.00,WUHU216HW,2013-01-18 09:54:00,
2013-01-18 03:59:00,16.2,9.9,30.31,South,180,1.3,2.9,76,0.00,,,0.00,WUHU216HW,2013-01-18 09:59:00,
2013-01-18 04:04:00,16.2,9.9,30.30,SSW,203,1.1,2.9,76,0.00,,,0.00,WUHU216HW,2013-01-18 10:04:00,
2013-01-18 04:09:00,16.2,9.9,30.30,SSE,158,1.6,2.9,76,0.00,,,0.00,WUHU216HW,2013-01-18 10:09:00,
2013-01-18 04:14:00,16.2,9.9,30.30,SE,135,1.1,2.5,76,0.00,,,0.00,WUHU216HW,2013-01-18 10:14:00,
2013-01-18 04:19:00,16.4,10.1,30.29,SE,135,0.2,2.5,76,0.00,,,0.00,WUHU216HW,2013-01-18 10:19:00,
2013-01-18 04:24:00,16.4,10.1,30.29,ESE,113,1.8,2.0,76,0.00,,,0.00,WUHU216HW,2013-01-18 10:24:00,
2013-01-18 04:29:00,16.6,10.3,30.28,South,180,1.8,2.5,76,0.00,,,0.00,WUHU216HW,2013-01-18 10:29:00,
2013-01-18 04:34:00,16.6,10.3,30.28,SSW,203,1.3,3.8,76,0.00,,,0.00,WUHU216HW,2013-01-18 10:34:00,
2013-01-18 04:39:00,16.7,10.5,30.28,SE,135,0.9,3.8,76,0.00,,,0.00,WUHU216HW,2013-01-18 10:39:00,
2013-01-18 04:44:00,16.7,10.5,30.27,SSE,158,1.1,2.0,76,0.00,,,0.00,WUHU216HW,2013-01-18 10:44:00,
2013-01-18 04:49:00,16.9,10.6,30.28,ESE,113,1.8,2.0,76,0.00,,,0.00,WUHU216HW,2013-01-18 10:49:00,
2013-01-18 04:54:00,16.9,10.6,30.28,SSE,158,0.9,2.5,76,0.00,,,0.00,WUHU216HW,2013-01-18 10:54:00,
2013-01-18 04:59:00,16.9,10.6,30.27,South,180,3.8,3.8,76,0.00,,,0.00,WUHU216HW,2013-01-18 10:59:00,
2013-01-18 05:04:00,16.9,10.6,30.26,South,180,1.6,3.8,76,0.00,,,0.00,WUHU216HW,2013-01-18 11:04:00,
2013-01-18 05:09:00,16.9,10.6,30.26,SSW,203,1.1,3.8,76,0.00,,,0.00,WUHU216HW,2013-01-18 11:09:00,
2013-01-18 05:14:00,16.9,10.6,30.26,South,180,4.0,6.0,76,0.00,,,0.00,WUHU216HW,2013-01-18 11:14:00,
2013-01-18 05:19:00,16.9,10.6,30.26,South,180,1.1,6.0,76,0.00,,,0.00,WUHU216HW,2013-01-18 11:19:00,
2013-01-18 05:24:00,16.9,10.6,30.26,SSE,158,1.1,4.7,76,0.00,,,0.00,WUHU216HW,2013-01-18 11:24:00,
2013-01-18 05:29:00,17.1,10.8,30.26,SSE,158,1.3,4.3,76,0.00,,,0.00,WUHU216HW,2013-01-18 11:29:00,
2013-01-18 05:34:00,17.1,10.8,30.26,South,180,2.5,4.7,76,0.00,,,0.00,WUHU216HW,2013-01-18 11:34:00,
2013-01-18 05:39:00,17.3,10.9,30.25,South,180,4.0,4.7,76,0.00,,,0.00,WUHU216HW,2013-01-18 11:39:00,
2013-01-18 05:44:00,17.3,10.9,30.25,SSW,203,3.1,4.0,76,0.00,,,0.00,WUHU216HW,2013-01-18 11:44:00,
2013-01-18 05:49:00,17.3,10.9,30.25,SSE,158,2.9,5.1,76,0.00,,,0.00,WUHU216HW,2013-01-18 11:49:00,
2013-01-18 05:54:00,17.5,11.1,30.25,SSE,158,4.3,5.1,76,0.00,,,0.00,WUHU216HW,2013-01-18 11:54:00,
2013-01-18 05:59:00,17.5,11.1,30.24,South,180,1.8,4.9,76,0.00,,,0.00,WUHU216HW,2013-01-18 11:59:00,
2013-01-18 06:04:00,17.6,11.5,30.24,South,180,2.5,4.9,77,0.00,,,0.00,WUHU216HW,2013-01-18 12:04:00,
2013-01-18 06:09:00,17.6,11.5,30.24,South,180,4.9,6.7,77,0.00,,,0.00,WUHU216HW,2013-01-18 12:09:00,
2013-01-18 06:14:00,17.8,11.7,30.24,SSE,158,2.9,6.7,77,0.00,,,0.00,WUHU216HW,2013-01-18 12:14:00,
2013-01-18 06:19:00,17.8,11.7,30.24,SSE,158,4.0,6.3,77,0.00,,,0.00,WUHU216HW,2013-01-18 12:19:00,
2013-01-18 06:24:00,17.8,11.7,30.24,South,180,1.6,4.7,77,0.00,,,0.00,WUHU216HW,2013-01-18 12:24:00,
2013-01-18 06:29:00,17.8,11.7,30.24,South,180,1.8,4.7,77,0.00,,,0.00,WUHU216HW,2013-01-18 12:29:00,
2013-01-18 06:34:00,17.8,11.7,30.24,South,180,4.7,4.7,77,0.00,,,0.00,WUHU216HW,2013-01-18 12:34:00,
2013-01-18 06:39:00,18.0,11.9,30.24,South,180,2.9,5.1,77,0.00,,,0.00,WUHU216HW,2013-01-18 12:39:00,
2013-01-18 06:44:00,18.0,12.3,30.23,SSW,203,2.5,5.1,78,0.00,,,0.00,WUHU216HW,2013-01-18 12:44:00,
2013-01-18 06:49:00,18.0,12.3,30.23,SSE,158,4.7,5.8,78,0.00,,,0.00,WUHU216HW,2013-01-18 12:49:00,
2013-01-18 06:54:00,18.2,12.3,30.22,South,180,3.6,5.8,78,0.00,,,0.00,WUHU216HW,2013-01-18 12:54:00,
2013-01-18 06:59:00,18.2,12.3,30.22,SSE,158,3.1,5.1,78,0.00,,,0.00,WUHU216HW,2013-01-18 12:59:00,
2013-01-18 07:04:00,18.4,12.9,30.22,South,180,3.1,5.4,79,0.00,,,0.00,WUHU216HW,2013-01-18 13:04:00,
2013-01-18 07:09:00,18.4,12.9,30.22,SSW,203,1.3,6.7,79,0.00,,,0.00,WUHU216HW,2013-01-18 13:09:00,
2013-01-18 07:14:00,18.4,12.9,30.22,SSE,158,2.5,8.1,79,0.00,,,0.00,WUHU216HW,2013-01-18 13:14:00,
2013-01-18 07:19:00,18.5,13.1,30.22,SSW,203,2.9,8.1,79,0.00,,,0.00,WUHU216HW,2013-01-18 13:19:00,
2013-01-18 07:24:00,18.7,13.2,30.22,SSW,203,1.8,4.9,79,0.00,,,0.00,WUHU216HW,2013-01-18 13:24:00,
2013-01-18 07:29:00,18.9,13.4,30.21,SSW,203,3.4,4.5,79,0.00,,,0.00,WUHU216HW,2013-01-18 13:29:00,
2013-01-18 07:34:00,19.1,13.6,30.20,South,180,7.2,7.2,79,0.00,,,0.00,WUHU216HW,2013-01-18 13:34:00,
2013-01-18 07:39:00,19.3,13.8,30.20,SW,225,4.5,7.2,79,0.00,,,0.00,WUHU216HW,2013-01-18 13:39:00,
2013-01-18 07:44:00,19.6,14.4,30.19,SE,135,5.6,7.6,80,0.00,,,0.00,WUHU216HW,2013-01-18 13:44:00,
2013-01-18 07:49:00,19.8,14.6,30.19,SSW,203,5.1,7.6,80,0.00,,,0.00,WUHU216HW,2013-01-18 13:49:00,
2013-01-18 07:54:00,20.2,14.9,30.18,SSW,203,8.1,8.1,80,0.00,,,0.00,WUHU216HW,2013-01-18 13:54:00,
2013-01-18 07:59:00,20.5,15.3,30.18,SSE,158,4.9,8.1,80,0.00,,,0.00,WUHU216HW,2013-01-18 13:59:00,
2013-01-18 08:04:00,20.7,15.5,30.18,South,180,6.5,8.3,80,0.00,,,0.00,WUHU216HW,2013-01-18 14:04:00,
2013-01-18 08:09:00,21.1,15.8,30.17,SSW,203,4.7,8.3,80,0.00,,,0.00,WUHU216HW,2013-01-18 14:09:00,
2013-01-18 08:14:00,21.4,16.2,30.17,SE,135,4.9,9.4,80,0.00,,,0.00,WUHU216HW,2013-01-18 14:14:00,
2013-01-18 08:19:00,21.6,16.4,30.17,South,180,6.3,9.4,80,0.00,,,0.00,WUHU216HW,2013-01-18 14:19:00,
2013-01-18 08:24:00,22.0,16.7,30.16,SSE,158,3.8,8.1,80,0.00,,,0.00,WUHU216HW,2013-01-18 14:24:00,
2013-01-18 08:29:00,22.1,16.7,30.16,SSW,203,4.7,9.8,79,0.00,,,0.00,WUHU216HW,2013-01-18 14:29:00,
2013-01-18 08:34:00,22.3,16.8,30.15,South,180,7.4,9.8,79,0.00,,,0.00,WUHU216HW,2013-01-18 14:34:00,
2013-01-18 08:39:00,22.7,17.2,30.15,SSW,203,11.6,11.6,79,0.00,,,0.00,WUHU216HW,2013-01-18 14:39:00,
2013-01-18 08:44:00,23.0,17.2,30.15,WSW,248,6.7,11.6,78,0.00,,,0.00,WUHU216HW,2013-01-18 14:44:00,
2013-01-18 08:49:00,23.4,17.6,30.15,South,180,6.5,11.6,78,0.00,,,0.00,WUHU216HW,2013-01-18 14:49:00,
2013-01-18 08:54:00,23.9,18.1,30.14,South,180,7.2,10.3,78,0.00,,,0.00,WUHU216HW,2013-01-18 14:54:00,
2013-01-18 08:59:00,24.1,18.3,30.14,South,180,6.3,11.0,78,0.00,,,0.00,WUHU216HW,2013-01-18 14:59:00,
2013-01-18 09:04:00,24.7,18.5,30.13,SW,225,2.7,11.2,77,0.00,,,0.00,WUHU216HW,2013-01-18 15:04:00,
2013-01-18 09:09:00,25.0,18.8,30.13,SSW,203,2.7,11.2,77,0.00,,,0.00,WUHU216HW,2013-01-18 15:09:00,
2013-01-18 09:14:00,25.4,18.8,30.13,SSW,203,4.7,8.9,76,0.00,,,0.00,WUHU216HW,2013-01-18 15:14:00,
2013-01-18 09:19:00,25.7,19.2,30.12,SSE,158,10.3,10.3,76,0.00,,,0.00,WUHU216HW,2013-01-18 15:19:00,
2013-01-18 09:24:00,26.3,19.4,30.11,SE,135,7.4,10.3,75,0.00,,,0.00,WUHU216HW,2013-01-18 15:24:00,
2013-01-18 09:29:00,26.8,19.9,30.11,South,180,5.4,10.5,75,0.00,,,0.00,WUHU216HW,2013-01-18 15:29:00,
2013-01-18 09:34:00,27.0,19.8,30.11,SSW,203,6.7,10.5,74,0.00,,,0.00,WUHU216HW,2013-01-18 15:34:00,
2013-01-18 09:39:00,27.5,20.6,30.10,WNW,293,10.5,13.6,75,0.00,,,0.00,WUHU216HW,2013-01-18 15:39:00,
2013-01-18 09:44:00,27.7,20.8,30.10,South,180,6.7,13.6,75,0.00,,,0.00,WUHU216HW,2013-01-18 15:44:00,
2013-01-18 09:49:00,28.1,20.9,30.10,SSE,158,7.2,13.4,74,0.00,,,0.00,WUHU216HW,2013-01-18 15:49:00,
2013-01-18 09:54:00,28.3,21.1,30.09,SSE,158,5.1,12.8,74,0.00,,,0.00,WUHU216HW,2013-01-18 15:54:00,
2013-01-18 09:59:00,28.4,21.3,30.09,SSW,203,4.0,12.8,74,0.00,,,0.00,WUHU216HW,2013-01-18 15:59:00,
2013-01-18 10:04:00,29.2,21.6,30.09,South,180,8.1,14.1,73,0.00,,,0.00,WUHU216HW,2013-01-18 16:04:00,
2013-01-18 10:09:00,29.9,22.2,30.08,SSW,203,7.2,14.1,73,0.00,,,0.00,WUHU216HW,2013-01-18 16:09:00,
2013-01-18 10:14:00,30.8,22.8,30.07,SSE,158,7.8,10.1,72,0.00,,,0.00,WUHU216HW,2013-01-18 16:14:00,
2013-01-18 10:19:00,31.1,23.1,30.07,South,180,8.5,10.3,72,0.00,,,0.00,WUHU216HW,2013-01-18 16:19:00,
2013-01-18 10:24:00,31.3,23.1,30.06,SSW,203,4.0,10.3,71,0.00,,,0.00,WUHU216HW,2013-01-18 16:24:00,
2013-01-18 10:29:00,31.7,23.4,30.06,South,180,8.1,12.3,71,0.00,,,0.00,WUHU216HW,2013-01-18 16:29:00,
2013-01-18 10:34:00,32.0,23.8,30.05,SSW,203,6.3,12.3,71,0.00,,,0.00,WUHU216HW,2013-01-18 16:34:00,
2013-01-18 10:39:00,32.4,23.8,30.04,WNW,293,3.4,14.3,70,0.00,,,0.00,WUHU216HW,2013-01-18 16:39:00,
2013-01-18 10:44:00,32.8,24.0,30.04,SSE,158,9.8,14.3,70,0.00,,,0.00,WUHU216HW,2013-01-18 16:44:00,
2013-01-18 10:49:00,33.5,24.7,30.04,South,180,7.6,10.5,70,0.00,,,0.00,WUHU216HW,2013-01-18 16:49:00,
2013-01-18 10:54:00,34.0,24.8,30.03,SSE,158,9.8,9.8,69,0.00,,,0.00,WUHU216HW,2013-01-18 16:54:00,
2013-01-18 10:59:00,34.4,25.2,30.03,NW,315,4.7,9.8,69,0.00,,,0.00,WUHU216HW,2013-01-18 16:59:00,
2013-01-18 11:04:00,35.3,25.7,30.02,WSW,248,6.9,14.3,68,0.00,,,0.00,WUHU216HW,2013-01-18 17:04:00,
2013-01-18 11:09:00,35.8,25.6,30.01,SSW,203,6.3,14.3,66,0.00,,,0.00,WUHU216HW,2013-01-18 17:09:00,
2013-01-18 11:14:00,35.8,25.9,30.01,West,270,8.7,13.6,67,0.00,,,0.00,WUHU216HW,2013-01-18 17:14:00,
2013-01-18 11:19:00,35.6,25.4,30.00,South,180,9.4,13.6,66,0.00,,,0.00,WUHU216HW,2013-01-18 17:19:00,
2013-01-18 11:24:00,35.5,25.6,30.00,SSW,203,6.9,12.5,67,0.00,,,0.00,WUHU216HW,2013-01-18 17:24:00,
2013-01-18 11:29:00,35.6,25.7,29.99,SSW,203,6.9,12.5,67,0.00,,,0.00,WUHU216HW,2013-01-18 17:29:00,
2013-01-18 11:34:00,35.6,25.7,29.99,West,270,6.3,12.5,67,0.00,,,0.00,WUHU216HW,2013-01-18 17:34:00,
2013-01-18 11:39:00,35.6,25.7,29.99,SSW,203,7.8,12.5,67,0.00,,,0.00,WUHU216HW,2013-01-18 17:39:00,
2013-01-18 11:44:00,36.2,26.3,29.98,NNW,338,8.5,12.1,67,0.00,,,0.00,WUHU216HW,2013-01-18 17:44:00,
2013-01-18 11:49:00,36.4,26.5,29.97,South,180,7.4,12.1,67,0.00,,,0.00,WUHU216HW,2013-01-18 17:49:00,
2013-01-18 11:54:00,36.7,26.5,29.97,South,180,8.3,12.1,66,0.00,,,0.00,WUHU216HW,2013-01-18 17:54:00,
2013-01-18 11:59:00,37.1,26.4,29.96,South,180,8.9,12.8,65,0.00,,,0.00,WUHU216HW,2013-01-18 17:59:00,
2013-01-18 12:04:00,36.9,26.2,29.95,ENE,68,4.7,12.8,65,0.00,,,0.00,WUHU216HW,2013-01-18 18:04:00,
2013-01-18 12:09:00,37.3,26.6,29.95,SE,135,5.8,13.4,65,0.00,,,0.00,WUHU216HW,2013-01-18 18:09:00,
2013-01-18 12:14:00,37.6,26.9,29.94,SSW,203,6.3,13.4,65,0.00,,,0.00,WUHU216HW,2013-01-18 18:14:00,
2013-01-18 12:19:00,38.3,27.2,29.94,SSW,203,9.2,12.1,64,0.00,,,0.00,WUHU216HW,2013-01-18 18:19:00,
2013-01-18 12:24:00,38.2,26.7,29.94,West,270,5.8,12.1,63,0.00,,,0.00,WUHU216HW,2013-01-18 18:24:00,
2013-01-18 12:29:00,38.3,27.2,29.93,SSW,203,6.3,11.4,64,0.00,,,0.00,WUHU216HW,2013-01-18 18:29:00,
2013-01-18 12:34:00,38.9,27.3,29.93,West,270,4.9,9.4,63,0.00,,,0.00,WUHU216HW,2013-01-18 18:34:00,
2013-01-18 12:39:00,39.2,27.6,29.92,SSE,158,4.3,9.4,63,0.00,,,0.00,WUHU216HW,2013-01-18 18:39:00,
2013-01-18 12:44:00,39.8,28.2,29.91,SSW,203,4.9,9.6,63,0.00,,,0.00,WUHU216HW,2013-01-18 18:44:00,
2013-01-18 12:49:00,40.3,28.3,29.91,WSW,248,4.7,9.6,62,0.00,,,0.00,WUHU216HW,2013-01-18 18:49:00,
2013-01-18 12:54:00,40.3,28.3,29.90,WSW,248,6.9,9.4,62,0.00,,,0.00,WUHU216HW,2013-01-18 18:54:00,
2013-01-18 12:59:00,40.7,28.6,29.90,SSW,203,7.6,9.4,62,0.00,,,0.00,WUHU216HW,2013-01-18 18:59:00,
2013-01-18 13:04:00,41.2,28.8,29.90,SW,225,3.4,10.3,61,0.00,,,0.00,WUHU216HW,2013-01-18 19:04:00,
2013-01-18 13:09:00,41.0,28.6,29.89,South,180,7.2,11.4,61,0.00,,,0.00,WUHU216HW,2013-01-18 19:09:00,
2013-01-18 13:14:00,41.8,28.9,29.89,NNE,23,3.4,11.4,60,0.00,,,0.00,WUHU216HW,2013-01-18 19:14:00,
2013-01-18 13:19:00,42.1,29.3,29.89,South,180,4.0,9.4,60,0.00,,,0.00,WUHU216HW,2013-01-18 19:19:00,
2013-01-18 13:24:00,42.1,28.8,29.88,West,270,9.6,10.5,59,0.00,,,0.00,WUHU216HW,2013-01-18 19:24:00,
2013-01-18 13:29:00,41.0,28.6,29.87,SSE,158,10.5,10.5,61,0.00,,,0.00,WUHU216HW,2013-01-18 19:29:00,
2013-01-18 13:34:00,39.6,28.0,29.87,South,180,4.7,10.5,63,0.00,,,0.00,WUHU216HW,2013-01-18 19:34:00,
2013-01-18 13:39:00,39.2,28.4,29.86,South,180,7.6,10.5,65,0.00,,,0.00,WUHU216HW,2013-01-18 19:39:00,
2013-01-18 13:44:00,39.2,28.7,29.86,South,180,6.0,10.5,66,0.00,,,0.00,WUHU216HW,2013-01-18 19:44:00,
2013-01-18 13:49:00,40.0,29.4,29.86,WSW,248,3.6,13.4,66,0.00,,,0.00,WUHU216HW,2013-01-18 19:49:00,
2013-01-18 13:54:00,41.8,29.7,29.86,SW,225,3.8,15.0,62,0.00,,,0.00,WUHU216HW,2013-01-18 19:54:00,
2013-01-18 13:59:00,42.8,29.9,29.86,South,180,4.9,15.0,60,0.00,,,0.00,WUHU216HW,2013-01-18 19:59:00,
2013-01-18 14:04:00,42.8,29.9,29.85,SW,225,6.3,10.5,60,0.00,,,0.00,WUHU216HW,2013-01-18 20:04:00,
2013-01-18 14:09:00,43.6,30.2,29.85,SE,135,4.0,9.8,59,0.00,,,0.00,WUHU216HW,2013-01-18 20:09:00,
2013-01-18 14:14:00,43.6,30.2,29.85,South,180,6.3,9.4,59,0.00,,,0.00,WUHU216HW,2013-01-18 20:14:00,
2013-01-18 14:19:00,43.7,30.3,29.85,WSW,248,4.3,10.5,59,0.00,,,0.00,WUHU216HW,2013-01-18 20:19:00,
2013-01-18 14:24:00,44.1,30.2,29.85,SSW,203,6.0,10.5,58,0.00,,,0.00,WUHU216HW,2013-01-18 20:24:00,
2013-01-18 14:29:00,44.3,30.4,29.85,SW,225,11.9,11.9,58,0.00,,,0.00,WUHU216HW,2013-01-18 20:29:00,
2013-01-18 14:34:00,44.3,30.4,29.84,SSW,203,4.0,11.9,58,0.00,,,0.00,WUHU216HW,2013-01-18 20:34:00,
2013-01-18 14:39:00,43.9,30.5,29.84,SE,135,8.9,11.9,59,0.00,,,0.00,WUHU216HW,2013-01-18 20:39:00,
2013-01-18 14:44:00,43.7,30.8,29.85,SSW,203,3.1,10.5,60,0.00,,,0.00,WUHU216HW,2013-01-18 20:44:00,
2013-01-18 14:49:00,43.2,30.2,29.84,SSE,158,6.7,10.5,60,0.00,,,0.00,WUHU216HW,2013-01-18 20:49:00,
2013-01-18 14:54:00,41.9,30.3,29.84,SE,135,4.9,8.7,63,0.00,,,0.00,WUHU216HW,2013-01-18 20:54:00,
2013-01-18 14:59:00,41.4,30.2,29.84,SW,225,4.5,8.7,64,0.00,,,0.00,WUHU216HW,2013-01-18 20:59:00,
2013-01-18 15:04:00,41.2,30.3,29.84,WNW,293,6.0,10.7,65,0.00,,,0.00,WUHU216HW,2013-01-18 21:04:00,
2013-01-18 15:09:00,41.2,30.3,29.83,SE,135,4.0,10.7,65,0.00,,,0.00,WUHU216HW,2013-01-18 21:09:00,
2013-01-18 15:14:00,41.2,30.7,29.83,NW,315,9.2,9.2,66,0.00,,,0.00,WUHU216HW,2013-01-18 21:14:00,
2013-01-18 15:19:00,41.2,30.7,29.83,South,180,4.7,11.0,66,0.00,,,0.00,WUHU216HW,2013-01-18 21:19:00,
2013-01-18 15:24:00,41.0,30.5,29.83,WSW,248,2.9,11.0,66,0.00,,,0.00,WUHU216HW,2013-01-18 21:24:00,
2013-01-18 15:29:00,41.0,30.9,29.82,SSE,158,6.3,9.4,67,0.00,,,0.00,WUHU216HW,2013-01-18 21:29:00,
2013-01-18 15:34:00,41.0,30.9,29.82,SSW,203,3.8,8.5,67,0.00,,,0.00,WUHU216HW,2013-01-18 21:34:00,
2013-01-18 15:39:00,40.9,30.7,29.82,WSW,248,8.1,12.1,67,0.00,,,0.00,WUHU216HW,2013-01-18 21:39:00,
2013-01-18 15:44:00,40.9,30.7,29.82,SSW,203,4.7,12.1,67,0.00,,,0.00,WUHU216HW,2013-01-18 21:44:00,
2013-01-18 15:49:00,40.7,30.5,29.82,South,180,6.9,8.1,67,0.00,,,0.00,WUHU216HW,2013-01-18 21:49:00,
2013-01-18 15:54:00,40.7,30.5,29.82,SW,225,4.5,8.7,67,0.00,,,0.00,WUHU216HW,2013-01-18 21:54:00,
2013-01-18 15:59:00,40.7,31.0,29.82,SSE,158,5.4,8.7,68,0.00,,,0.00,WUHU216HW,2013-01-18 21:59:00,
2013-01-18 16:04:00,40.7,31.0,29.82,SSW,203,4.7,8.5,68,0.00,,,0.00,WUHU216HW,2013-01-18 22:04:00,
2013-01-18 16:09:00,40.7,31.0,29.82,SSE,158,4.7,8.7,68,0.00,,,0.00,WUHU216HW,2013-01-18 22:09:00,
2013-01-18 16:14:00,40.5,31.2,29.82,South,180,3.6,8.7,69,0.00,,,0.00,WUHU216HW,2013-01-18 22:14:00,
2013-01-18 16:19:00,40.3,31.0,29.83,North,0,3.6,6.0,69,0.00,,,0.00,WUHU216HW,2013-01-18 22:19:00,
2013-01-18 16:24:00,40.1,31.1,29.83,SE,135,3.4,7.2,70,0.00,,,0.00,WUHU216HW,2013-01-18 22:24:00,
2013-01-18 16:29:00,40.0,31.0,29.82,SSE,158,2.5,7.2,70,0.00,,,0.00,WUHU216HW,2013-01-18 22:29:00,
2013-01-18 16:34:00,39.8,31.2,29.82,SSW,203,3.6,6.9,71,0.00,,,0.00,WUHU216HW,2013-01-18 22:34:00,
2013-01-18 16:39:00,39.8,31.2,29.82,South,180,5.4,6.9,71,0.00,,,0.00,WUHU216HW,2013-01-18 22:39:00,
2013-01-18 16:44:00,39.6,31.0,29.82,SSW,203,7.6,7.6,71,0.00,,,0.00,WUHU216HW,2013-01-18 22:44:00,
2013-01-18 16:49:00,39.4,30.8,29.82,WSW,248,3.4,7.6,71,0.00,,,0.00,WUHU216HW,2013-01-18 22:49:00,
2013-01-18 16:54:00,39.6,31.3,29.82,SSE,158,4.7,7.6,72,0.00,,,0.00,WUHU216HW,2013-01-18 22:54:00,
2013-01-18 16:59:00,39.2,31.0,29.82,South,180,2.5,6.3,72,0.00,,,0.00,WUHU216HW,2013-01-18 22:59:00,
2013-01-18 17:04:00,39.2,31.0,29.82,NNE,23,3.4,6.0,72,0.00,,,0.00,WUHU216HW,2013-01-18 23:04:00,
2013-01-18 17:09:00,39.2,31.0,29.82,SSE,158,2.5,6.9,72,0.00,,,0.00,WUHU216HW,2013-01-18 23:09:00,
2013-01-18 17:14:00,39.1,31.2,29.81,West,270,3.4,6.9,73,0.00,,,0.00,WUHU216HW,2013-01-18 23:14:00,
2013-01-18 17:19:00,39.1,31.2,29.81,South,180,3.4,4.5,73,0.00,,,0.00,WUHU216HW,2013-01-18 23:19:00,
2013-01-18 17:24:00,38.9,31.2,29.81,South,180,4.0,5.8,74,0.00,,,0.00,WUHU216HW,2013-01-18 23:24:00,
2013-01-18 17:29:00,38.9,31.2,29.81,WSW,248,4.3,8.1,74,0.00,,,0.00,WUHU216HW,2013-01-18 23:29:00,
2013-01-18 17:34:00,38.9,31.2,29.81,NNE,23,3.8,8.1,74,0.00,,,0.00,WUHU216HW,2013-01-18 23:34:00,
2013-01-18 17:39:00,39.1,31.4,29.81,SSW,203,3.4,5.6,74,0.00,,,0.00,WUHU216HW,2013-01-18 23:39:00,
2013-01-18 17:44:00,38.9,31.2,29.81,South,180,4.7,5.4,74,0.00,,,0.00,WUHU216HW,2013-01-18 23:44:00,
2013-01-18 17:49:00,38.9,31.2,29.81,SE,135,4.7,6.5,74,0.00,,,0.00,WUHU216HW,2013-01-18 23:49:00,
2013-01-18 17:54:00,38.9,31.2,29.81,SE,135,4.7,6.5,74,0.00,,,0.00,WUHU216HW,2013-01-18 23:54:00,
2013-01-18 17:59:00,38.9,31.2,29.81,West,270,4.5,6.0,74,0.00,,,0.00,WUHU216HW,2013-01-18 23:59:00,
2013-01-18 18:04:00,39.1,31.4,29.81,SSW,203,3.4,6.0,74,0.00,,,0.00,WUHU216HW,2013-01-19 00:04:00,
2013-01-18 18:09:00,38.9,31.2,29.81,SSE,158,2.0,7.2,74,0.00,,,0.00,WUHU216HW,2013-01-19 00:09:00,
2013-01-18 18:14:00,38.9,31.2,29.81,SSW,203,3.8,7.8,74,0.00,,,0.00,WUHU216HW,2013-01-19 00:14:00,
2013-01-18 18:19:00,38.9,31.2,29.81,SW,225,3.4,7.8,74,0.00,,,0.00,WUHU216HW,2013-01-19 00:19:00,
2013-01-18 18:24:00,39.1,31.4,29.81,WSW,248,2.5,6.7,74,0.00,,,0.00,WUHU216HW,2013-01-19 00:24:00,
2013-01-18 18:29:00,39.1,31.4,29.81,SW,225,7.2,7.2,74,0.00,,,0.00,WUHU216HW,2013-01-19 00:29:00,
2013-01-18 18:34:00,38.9,31.2,29.81,ESE,113,1.3,7.2,74,0.00,,,0.00,WUHU216HW,2013-01-19 00:34:00,
2013-01-18 18:39:00,38.9,31.6,29.81,WNW,293,3.4,5.1,75,0.00,,,0.00,WUHU216HW,2013-01-19 00:39:00,
2013-01-18 18:44:00,38.9,31.2,29.81,WSW,248,2.9,6.7,74,0.00,,,0.00,WUHU216HW,2013-01-19 00:44:00,
2013-01-18 18:49:00,39.1,31.4,29.81,NNW,338,4.0,6.7,74,0.00,,,0.00,WUHU216HW,2013-01-19 00:49:00,
2013-01-18 18:54:00,39.1,31.4,29.81,West,270,4.0,6.3,74,0.00,,,0.00,WUHU216HW,2013-01-19 00:54:00,
2013-01-18 18:59:00,38.9,31.6,29.81,WSW,248,3.4,6.3,75,0.00,,,0.00,WUHU216HW,2013-01-19 00:59:00,
2013-01-18 19:04:00,38.9,31.6,29.81,SSW,203,1.3,5.6,75,0.00,,,0.00,WUHU216HW,2013-01-19 01:04:00,
2013-01-18 19:09:00,38.9,31.6,29.82,WSW,248,6.3,6.5,75,0.00,,,0.00,WUHU216HW,2013-01-19 01:09:00,
2013-01-18 19:14:00,39.1,31.8,29.81,SSW,203,2.2,6.7,75,0.00,,,0.00,WUHU216HW,2013-01-19 01:14:00,
2013-01-18 19:19:00,38.9,31.6,29.81,SE,135,5.6,6.7,75,0.00,,,0.00,WUHU216HW,2013-01-19 01:19:00,
2013-01-18 19:24:00,38.9,31.6,29.81,SW,225,4.7,6.9,75,0.00,,,0.00,WUHU216HW,2013-01-19 01:24:00,
2013-01-18 19:29:00,39.1,31.8,29.81,West,270,5.1,7.2,75,0.00,,,0.00,WUHU216HW,2013-01-19 01:29:00,
2013-01-18 19:34:00,39.1,31.8,29.81,SW,225,4.7,7.2,75,0.00,,,0.00,WUHU216HW,2013-01-19 01:34:00,
2013-01-18 19:39:00,39.1,31.8,29.81,WSW,248,6.3,6.7,75,0.00,,,0.00,WUHU216HW,2013-01-19 01:39:00,
2013-01-18 19:44:00,39.1,31.8,29.81,SW,225,4.0,6.3,75,0.00,,,0.00,WUHU216HW,2013-01-19 01:44:00,
2013-01-18 19:49:00,39.2,32.0,29.81,SW,225,4.5,6.9,75,0.00,,,0.00,WUHU216HW,2013-01-19 01:49:00,
2013-01-18 19:54:00,39.2,31.6,29.81,SSW,203,6.0,8.1,74,0.00,,,0.00,WUHU216HW,2013-01-19 01:54:00,
2013-01-18 19:59:00,39.2,32.0,29.80,SSE,158,7.2,8.1,75,0.00,,,0.00,WUHU216HW,2013-01-19 01:59:00,
2013-01-18 20:04:00,39.1,31.8,29.80,SW,225,4.0,7.4,75,0.00,,,0.00,WUHU216HW,2013-01-19 02:04:00,
2013-01-18 20:09:00,39.2,32.0,29.80,SE,135,7.2,7.2,75,0.00,,,0.00,WUHU216HW,2013-01-19 02:09:00,
2013-01-18 20:14:00,39.2,32.0,29.80,SE,135,5.1,9.2,75,0.00,,,0.00,WUHU216HW,2013-01-19 02:14:00,
2013-01-18 20:19:00,39.2,32.0,29.80,SSW,203,3.1,9.2,75,0.00,,,0.00,WUHU216HW,2013-01-19 02:19:00,
2013-01-18 20:24:00,39.1,31.8,29.79,NW,315,5.6,7.6,75,0.00,,,0.00,WUHU216HW,2013-01-19 02:24:00,
2013-01-18 20:29:00,39.1,31.8,29.80,ENE,68,5.8,6.5,75,0.00,,,0.00,WUHU216HW,2013-01-19 02:29:00,
2013-01-18 20:34:00,38.9,31.6,29.79,WSW,248,2.5,6.9,75,0.00,,,0.00,WUHU216HW,2013-01-19 02:34:00,
2013-01-18 20:39:00,38.9,32.0,29.79,SSE,158,3.1,6.9,76,0.00,,,0.00,WUHU216HW,2013-01-19 02:39:00,
2013-01-18 20:44:00,38.7,31.8,29.79,NE,45,4.3,6.3,76,0.00,,,0.00,WUHU216HW,2013-01-19 02:44:00,
2013-01-18 20:49:00,38.7,31.8,29.79,SSW,203,3.4,6.3,76,0.00,,,0.00,WUHU216HW,2013-01-19 02:49:00,
2013-01-18 20:54:00,38.5,31.6,29.80,South,180,3.4,5.8,76,0.00,,,0.00,WUHU216HW,2013-01-19 02:54:00,
2013-01-18 20:59:00,38.3,31.8,29.79,SSW,203,3.4,6.3,77,0.00,,,0.00,WUHU216HW,2013-01-19 02:59:00,
2013-01-18 21:04:00,38.2,31.2,29.79,SSE,158,2.5,6.3,76,0.00,,,0.00,WUHU216HW,2013-01-19 03:04:00,
2013-01-18 21:09:00,38.0,31.1,29.80,SSW,203,2.5,5.8,76,0.00,,,0.00,WUHU216HW,2013-01-19 03:09:00,
2013-01-18 21:14:00,38.0,31.1,29.79,WSW,248,3.8,5.4,76,0.00,,,0.00,WUHU216HW,2013-01-19 03:14:00,
2013-01-18 21:19:00,37.8,31.2,29.80,WSW,248,4.0,5.4,77,0.00,,,0.00,WUHU216HW,2013-01-19 03:19:00,
2013-01-18 21:24:00,37.6,31.1,29.80,West,270,2.9,4.7,77,0.00,,,0.00,WUHU216HW,2013-01-19 03:24:00,
2013-01-18 21:29:00,37.4,30.9,29.80,SSE,158,4.9,6.9,77,0.00,,,0.00,WUHU216HW,2013-01-19 03:29:00,
2013-01-18 21:34:00,37.4,31.2,29.79,NW,315,2.0,6.9,78,0.00,,,0.00,WUHU216HW,2013-01-19 03:34:00,
2013-01-18 21:39:00,37.3,31.1,29.79,South,180,1.8,4.7,78,0.00,,,0.00,WUHU216HW,2013-01-19 03:39:00,
2013-01-18 21:44:00,37.1,30.9,29.79,SW,225,3.6,4.7,78,0.00,,,0.00,WUHU216HW,2013-01-19 03:44:00,
2013-01-18 21:49:00,37.1,30.9,29.79,WNW,293,2.9,4.5,78,0.00,,,0.00,WUHU216HW,2013-01-19 03:49:00,
2013-01-18 21:54:00,37.1,30.9,29.79,South,180,3.4,4.7,78,0.00,,,0.00,WUHU216HW,2013-01-19 03:54:00,
2013-01-18 21:59:00,37.1,30.9,29.79,SSE,158,3.6,4.7,78,0.00,,,0.00,WUHU216HW,2013-01-19 03:59:00,
2013-01-18 22:04:00,37.3,31.1,29.79,SSW,203,3.4,4.9,78,0.00,,,0.00,WUHU216HW,2013-01-19 04:04:00,
2013-01-18 22:09:00,37.4,31.2,29.79,South,180,2.9,4.9,78,0.00,,,0.00,WUHU216HW,2013-01-19 04:09:00,
2013-01-18 22:14:00,37.4,30.9,29.79,SW,225,2.9,4.9,77,0.00,,,0.00,WUHU216HW,2013-01-19 04:14:00,
2013-01-18 22:19:00,37.6,31.1,29.79,SSW,203,3.6,6.0,77,0.00,,,0.00,WUHU216HW,2013-01-19 04:19:00,
2013-01-18 22:24:00,37.8,31.2,29.78,WSW,248,2.9,6.0,77,0.00,,,0.00,WUHU216HW,2013-01-19 04:24:00,
2013-01-18 22:29:00,38.0,31.1,29.78,WSW,248,2.7,5.4,76,0.00,,,0.00,WUHU216HW,2013-01-19 04:29:00,
2013-01-18 22:34:00,38.2,31.6,29.78,SSE,158,4.5,5.6,77,0.00,,,0.00,WUHU216HW,2013-01-19 04:34:00,
2013-01-18 22:39:00,38.3,31.8,29.78,ENE,68,3.6,5.6,77,0.00,,,0.00,WUHU216HW,2013-01-19 04:39:00,
2013-01-18 22:44:00,38.5,31.6,29.78,WSW,248,2.7,5.4,76,0.00,,,0.00,WUHU216HW,2013-01-19 04:44:00,
2013-01-18 22:49:00,38.9,31.6,29.79,SW,225,3.8,5.4,75,0.00,,,0.00,WUHU216HW,2013-01-19 04:49:00,
2013-01-18 22:54:00,38.9,31.6,29.79,SE,135,3.6,6.0,75,0.00,,,0.00,WUHU216HW,2013-01-19 04:54:00,
2013-01-18 22:59:00,38.9,31.6,29.78,WNW,293,3.6,6.0,75,0.00,,,0.00,WUHU216HW,2013-01-19 04:59:00,
2013-01-18 23:00:00,38.9,31.6,29.78,SW,225,3.8,6.0,75,0.00,,,0.00,WUHU216HW,2013-01-19 05:00:00,
2013-01-18 23:01:00,38.9,31.6,29.78,WSW,248,1.3,6.0,75,0.00,,,0.00,WUHU216HW,2013-01-19 05:01:00,
2013-01-18 23:02:00,38.9,31.6,29.78,SSW,203,2.5,6.0,75,0.00,,,0.00,WUHU216HW,2013-01-19 05:02:00,
2013-01-18 23:07:00,38.9,31.6,29.78,SW,225,4.3,5.4,75,0.00,,,0.00,WUHU216HW,2013-01-19 05:07:00,
2013-01-18 23:12:00,38.7,31.4,29.78,WSW,248,4.0,5.4,75,0.00,,,0.00,WUHU216HW,2013-01-19 05:12:00,
2013-01-18 23:17:00,38.7,31.4,29.78,WSW,248,2.2,4.9,75,0.00,,,0.00,WUHU216HW,2013-01-19 05:17:00,
2013-01-18 23:22:00,38.5,31.2,29.78,SW,225,2.7,4.5,75,0.00,,,0.00,WUHU216HW,2013-01-19 05:22:00,
2013-01-18 23:27:00,38.5,31.2,29.79,NNW,338,1.3,3.1,75,0.00,,,0.00,WUHU216HW,2013-01-19 05:27:00,
2013-01-18 23:32:00,38.5,31.6,29.79,NW,315,1.3,3.1,76,0.00,,,0.00,WUHU216HW,2013-01-19 05:32:00,
2013-01-18 23:37:00,38.3,31.4,29.79,NW,315,0.4,2.5,76,0.00,,,0.00,WUHU216HW,2013-01-19 05:37:00,
2013-01-18 23:42:00,38.3,31.4,29.79,SW,225,1.3,2.5,76,0.00,,,0.00,WUHU216HW,2013-01-19 05:42:00,
2013-01-18 23:47:00,38.3,31.4,29.79,NW,315,0.4,2.2,76,0.00,,,0.00,WUHU216HW,2013-01-19 05:47:00,
2013-01-18 23:52:00,38.3,31.4,29.80,WSW,248,2.0,3.4,76,0.00,,,0.00,WUHU216HW,2013-01-19 05:52:00,
2013-01-18 23:57:00,38.3,31.4,29.80,South,180,2.0,5.4,76,0.00,,,0.00,WUHU216HW,2013-01-19 05:57:00,